Socorro, NM

5:25 AM MST on February 06, 2016 (GMT -0700)
Socorro Municipal

Weather History for KONM - June, 2013

Change the Weather History Date:

Monday, June 24, 2013

  Actual Average Record
Temperature  
Mean Temperature 84 °F -  
Max Temperature 99 °F 93 °F 102 °F (2011)
Min Temperature 69 °F 55 °F 66 °F (2010)
Cooling Degree Days 19    
Growing Degree Days 34 (Base 50)    
Moisture  
Dew Point 22 °F    
Average Humidity 11    
Maximum Humidity 18    
Minimum Humidity 6    
Precipitation  
Precipitation 0.00 in - - ()
Sea Level Pressure  
Sea Level Pressure 29.97 in    
Wind  
Wind Speed 8 mph (SSW)    
Max Wind Speed 23 mph    
Max Gust Speed 31 mph    
Visibility 10 miles    
Events      
Averages and records for this station are not official NWS values.
T = Trace of Precipitation, MM = Missing Value Source: NWS Daily Summary

Daily Weather History Graph

Daily Weather History Graph

Search for Another Location

Airport or City:

Trip Planner

Search our weather history database for the weather conditions in past years. The results will help you decide how hot, cold, wet, or windy it might be!

Date:

Astronomy

Jun. 24, 2013 Rise Set
Actual Time 5:57 AM MDT 8:22 PM MDT
Civil Twilight 5:28 AM MDT 8:51 PM MDT
Nautical Twilight 4:52 AM MDT 9:27 PM MDT
Astronomical Twilight 4:12 AM MDT 10:07 PM MDT
Moon 9:33 PM MDT (6/24) 7:23 AM MDT (6/24)
Length of Visible Light 15h 23m
Length of Day
14h 25m
Full, 97% of the Moon is Illuminated
Jun 24
Full
Jun 29
Last Quarter
Jul 8
New
Jul 15
First Quarter
Jul 22
Full

Hourly Weather History & Observations

Time (MDT) Temp. Dew Point Humidity Pressure Visibility Wind Dir Wind Speed Gust Speed Precip Events Conditions
12:15 AM 76.3 °F 22.1 °F 13% 29.94 in 10.0 mi SSE 4.6 mph - N/A   Clear
12:35 AM 76.3 °F 22.5 °F 13% 29.94 in 10.0 mi SSE 4.6 mph - N/A   Clear
12:55 AM 75.9 °F 22.1 °F 13% 29.94 in 10.0 mi SSE 5.8 mph - N/A   Clear
1:15 AM 75.2 °F 22.8 °F 14% 29.94 in 10.0 mi SSE 5.8 mph - N/A   Clear
1:35 AM 75.0 °F 22.6 °F 14% 29.94 in 10.0 mi SSE 6.9 mph - N/A   Clear
1:55 AM 74.3 °F 22.3 °F 14% 29.94 in 10.0 mi SSE 6.9 mph - N/A   Clear
2:15 AM 73.8 °F 22.1 °F 14% 29.94 in 10.0 mi South 5.8 mph - N/A   Clear
2:35 AM 72.5 °F 22.1 °F 15% 29.94 in 10.0 mi South 4.6 mph - N/A   Clear
2:55 AM 72.1 °F 24.3 °F 17% 29.94 in 10.0 mi South 6.9 mph - N/A   Clear
3:15 AM 72.3 °F 23.4 °F 16% 29.94 in 10.0 mi South 6.9 mph - N/A   Clear
3:35 AM 72.0 °F 23.2 °F 16% 29.94 in 10.0 mi South 6.9 mph - N/A   Clear
3:55 AM 71.1 °F 23.9 °F 17% 29.94 in 10.0 mi SSE 6.9 mph - N/A   Clear
4:15 AM 71.1 °F 23.5 °F 17% 29.95 in 10.0 mi SSE 9.2 mph - N/A   Clear
4:35 AM 71.4 °F 22.8 °F 16% 29.96 in 10.0 mi South 9.2 mph - N/A   Clear
4:55 AM 71.6 °F 21.2 °F 15% 29.98 in 10.0 mi NW 3.5 mph - N/A   Clear
5:15 AM 72.9 °F 20.8 °F 14% 29.98 in 10.0 mi ESE 6.9 mph - N/A   Scattered Clouds
5:35 AM 72.5 °F 20.8 °F 14% 29.99 in 10.0 mi SE 3.5 mph - N/A   Scattered Clouds
5:55 AM 70.7 °F 20.3 °F 15% 30.00 in 10.0 mi WSW 4.6 mph - N/A   Scattered Clouds
6:15 AM 70.5 °F 20.3 °F 15% 30.01 in 10.0 mi Calm Calm - N/A   Mostly Cloudy
6:35 AM 69.8 °F 21.0 °F 16% 30.02 in 10.0 mi Calm Calm - N/A   Overcast
6:55 AM 70.7 °F 21.9 °F 16% 30.02 in 10.0 mi Calm Calm - N/A   Overcast
7:15 AM 71.2 °F 21.6 °F 15% 30.02 in 10.0 mi Calm Calm - N/A   Mostly Cloudy
7:35 AM 70.9 °F 24.8 °F 18% 30.04 in 10.0 mi Calm Calm - N/A   Mostly Cloudy
7:55 AM 72.1 °F 24.1 °F 17% 30.04 in 10.0 mi NW 4.6 mph - N/A   Scattered Clouds
8:15 AM 73.4 °F 22.3 °F 15% 30.04 in 10.0 mi Calm Calm - N/A   Clear
8:35 AM 75.2 °F 22.5 °F 14% 30.04 in 10.0 mi NW 4.6 mph - N/A   Clear
8:55 AM 77.0 °F 23.4 °F 14% 30.05 in 10.0 mi NNW 5.8 mph - N/A   Clear
9:15 AM 79.2 °F 23.0 °F 12% 30.05 in 10.0 mi Calm Calm - N/A   Clear
9:35 AM 81.7 °F 24.6 °F 12% 30.04 in 10.0 mi Calm Calm - N/A   Clear
9:55 AM 86.0 °F 26.8 °F 12% 30.04 in 10.0 mi SE 11.5 mph - N/A   Clear
10:15 AM 87.4 °F 27.1 °F 11% 30.04 in 10.0 mi SE 10.4 mph 19.6 mph N/A   Clear
10:35 AM 89.2 °F 27.0 °F 11% 30.04 in 10.0 mi ENE 6.9 mph - N/A   Clear
10:55 AM 90.9 °F 26.6 °F 10% 30.04 in 10.0 mi North 10.4 mph 16.1 mph N/A   Clear
11:15 AM 91.0 °F 24.3 °F 9% 30.03 in 10.0 mi NNE 5.8 mph - N/A   Clear
11:35 AM 92.5 °F 23.5 °F 8% 30.03 in 10.0 mi NNE 5.8 mph - N/A   Clear
11:55 AM 93.6 °F 24.3 °F 8% 30.00 in 10.0 mi West 11.5 mph 18.4 mph N/A   Clear
12:15 PM 95.0 °F 24.3 °F 8% 30.00 in 10.0 mi West 13.8 mph - N/A   Clear
12:35 PM 94.5 °F 23.9 °F 8% 30.00 in 10.0 mi South 12.7 mph 18.4 mph N/A   Clear
12:55 PM 96.6 °F 23.7 °F 7% 29.99 in 10.0 mi South 16.1 mph 24.2 mph N/A   Clear
1:15 PM 97.5 °F 23.7 °F 7% 29.98 in 10.0 mi SSW 21.9 mph 27.6 mph N/A   Clear
1:35 PM 95.7 °F 22.8 °F 7% 29.97 in 10.0 mi SSW 12.7 mph 20.7 mph N/A   Clear
1:55 PM 97.5 °F 22.6 °F 7% 29.96 in 10.0 mi SSW 15.0 mph 28.8 mph N/A   Clear
2:15 PM 97.7 °F 23.4 °F 7% 29.95 in 10.0 mi South 12.7 mph 28.8 mph N/A   Clear
2:35 PM 97.7 °F 23.2 °F 7% 29.95 in 10.0 mi South 16.1 mph 26.5 mph N/A   Clear
2:55 PM 98.2 °F 20.8 °F 6% 29.93 in 10.0 mi South 16.1 mph 26.5 mph N/A   Clear
3:15 PM 98.6 °F 22.6 °F 7% 29.93 in 10.0 mi South 20.7 mph 31.1 mph N/A   Clear
3:35 PM 98.4 °F 22.5 °F 7% 29.93 in 10.0 mi South 16.1 mph 26.5 mph N/A   Clear
3:55 PM 97.3 °F 21.7 °F 7% 29.92 in 10.0 mi South 17.3 mph 21.9 mph N/A   Clear
4:15 PM 97.0 °F 22.5 °F 7% 29.91 in 10.0 mi SSW 13.8 mph 26.5 mph N/A   Clear
4:35 PM 99.0 °F 21.7 °F 6% 29.91 in 10.0 mi South 23.0 mph 29.9 mph N/A   Clear
4:55 PM 95.5 °F 22.5 °F 7% 29.91 in 10.0 mi SSW 13.8 mph 24.2 mph N/A   Clear
5:15 PM 98.6 °F 20.3 °F 6% 29.91 in 10.0 mi WSW 11.5 mph 21.9 mph N/A   Clear
5:35 PM 96.6 °F 20.3 °F 6% 29.90 in 10.0 mi SW 17.3 mph 25.3 mph N/A   Clear
5:55 PM 95.2 °F 19.2 °F 6% 29.90 in 10.0 mi SSW 15.0 mph 23.0 mph N/A   Clear
6:15 PM 95.4 °F 19.6 °F 6% 29.90 in 10.0 mi SSW 18.4 mph 24.2 mph N/A   Clear
6:35 PM 94.8 °F 19.4 °F 6% 29.91 in 10.0 mi SW 18.4 mph 25.3 mph N/A   Clear
6:55 PM 94.1 °F 18.7 °F 6% 29.91 in 10.0 mi SSW 16.1 mph 23.0 mph N/A   Clear
7:15 PM 94.1 °F 16.7 °F 6% 29.91 in 10.0 mi SSW 17.3 mph - N/A   Clear
7:35 PM 93.0 °F 18.1 °F 7% 29.92 in 10.0 mi SSW 17.3 mph 23.0 mph N/A   Clear
7:55 PM 91.4 °F 19.2 °F 7% 29.92 in 10.0 mi SW 15.0 mph 23.0 mph N/A   Clear
8:15 PM 90.3 °F 19.6 °F 8% 29.93 in 10.0 mi SSW 10.4 mph - N/A   Clear
8:35 PM 88.7 °F 19.4 °F 8% 29.93 in 10.0 mi SW 11.5 mph - N/A   Clear
8:55 PM 87.1 °F 19.6 °F 8% 29.94 in 10.0 mi SW 9.2 mph - N/A   Clear
9:15 PM 86.2 °F 19.4 °F 9% 29.95 in 10.0 mi West 9.2 mph - N/A   Clear
9:35 PM 82.9 °F 18.7 °F 9% 29.96 in 10.0 mi West 6.9 mph - N/A   Clear
9:55 PM 82.9 °F 18.1 °F 9% 29.97 in 10.0 mi WSW 9.2 mph - N/A   Clear
10:15 PM 82.6 °F 17.2 °F 9% 29.98 in 10.0 mi WSW 9.2 mph - N/A   Clear
10:35 PM 80.1 °F 17.2 °F 10% 29.98 in 10.0 mi WSW 10.4 mph - N/A   Clear
10:55 PM 79.3 °F 18.0 °F 10% 29.99 in 10.0 mi West 8.1 mph - N/A   Clear
11:15 PM 82.4 °F 17.6 °F 9% 29.99 in 10.0 mi WSW 9.2 mph - N/A   Clear
11:35 PM 79.9 °F 16.7 °F 9% 30.00 in 10.0 mi SW 4.6 mph - N/A   Clear
11:55 PM 78.8 °F 16.7 °F 10% 30.00 in 10.0 mi SSW 5.8 mph - N/A   Clear